createdAt,value
2018-12-05T00:00:25.867Z,6.19
2018-12-05T00:01:06.427Z,6.12
2018-12-05T00:01:46.987Z,6.17
2018-12-05T00:02:27.543Z,6.12
2018-12-05T00:03:08.134Z,6.09
2018-12-05T00:03:48.749Z,6.19
2018-12-05T00:04:29.317Z,6.16
2018-12-05T00:05:09.840Z,6.05
2018-12-05T00:05:50.409Z,6.16
2018-12-05T00:06:31.034Z,6.17
2018-12-05T00:07:11.526Z,6.14
2018-12-05T00:07:52.081Z,6.08
2018-12-05T00:08:32.638Z,6.02
2018-12-05T00:09:13.231Z,6.08
2018-12-05T00:09:53.799Z,6.08
2018-12-05T00:10:34.371Z,6.02
2018-12-05T00:11:14.923Z,6.01
2018-12-05T00:11:55.506Z,6.05
2018-12-05T00:12:36.067Z,6.05
2018-12-05T00:13:16.626Z,5.99
2018-12-05T00:13:57.189Z,6.01
2018-12-05T00:14:37.749Z,5.97
2018-12-05T00:15:18.315Z,5.99
2018-12-05T00:15:58.873Z,6.02
2018-12-05T00:16:39.430Z,5.99
2018-12-05T00:17:20.025Z,6.02
2018-12-05T00:18:00.601Z,5.93
2018-12-05T00:18:41.163Z,5.94
2018-12-05T00:19:21.721Z,5.97
2018-12-05T00:20:02.289Z,5.91
2018-12-05T00:23:16.142Z,5.94
2018-12-05T00:23:56.756Z,5.89
2018-12-05T00:24:37.276Z,5.97
2018-12-05T00:25:17.842Z,5.99
2018-12-05T00:25:58.410Z,5.93
2018-12-05T00:26:39.008Z,5.97
2018-12-05T00:27:20.156Z,5.93
2018-12-05T00:28:01.231Z,5.93
2018-12-05T00:28:41.786Z,5.97
2018-12-05T00:29:22.348Z,5.91
2018-12-05T00:30:02.914Z,5.97
2018-12-05T00:30:43.472Z,5.94
2018-12-05T00:31:24.026Z,5.91
2018-12-05T00:32:04.630Z,5.9
2018-12-05T00:32:45.206Z,5.91
2018-12-05T00:33:25.768Z,5.91
2018-12-05T00:34:06.324Z,5.89
2018-12-05T00:34:46.884Z,5.9
2018-12-05T00:35:27.447Z,5.89
2018-12-05T00:36:08.012Z,5.9
2018-12-05T00:36:48.577Z,5.9
2018-12-05T00:37:29.135Z,5.94
2018-12-05T00:38:09.735Z,5.87
2018-12-05T00:38:50.288Z,5.9
2018-12-05T00:39:30.846Z,5.89
2018-12-05T00:40:11.409Z,5.9
2018-12-05T00:40:51.953Z,5.98
2018-12-05T00:41:32.524Z,5.99
2018-12-05T00:42:13.068Z,5.91
2018-12-05T00:42:53.629Z,5.93
2018-12-05T00:43:34.269Z,5.98
2018-12-05T00:44:14.850Z,5.9
2018-12-05T00:44:55.417Z,5.97
2018-12-05T00:45:35.975Z,5.99
2018-12-05T00:46:16.520Z,5.93
2018-12-05T00:46:57.118Z,5.91
2018-12-05T00:47:37.691Z,5.91
2018-12-05T00:48:18.247Z,5.94
2018-12-05T00:48:58.816Z,5.94
2018-12-05T00:49:39.377Z,5.91
2018-12-05T00:50:19.929Z,5.99
2018-12-05T00:51:00.475Z,5.84
2018-12-05T00:51:41.029Z,5.98
2018-12-05T00:52:21.597Z,5.9
2018-12-05T00:53:02.140Z,5.91
2018-12-05T00:53:42.698Z,5.9
2018-12-05T00:54:23.251Z,5.97
2018-12-05T00:55:03.807Z,5.97
2018-12-05T00:55:44.378Z,5.93
2018-12-05T00:56:24.931Z,5.94
2018-12-05T00:57:05.507Z,5.97
2018-12-05T00:57:46.054Z,5.9
2018-12-05T00:58:26.610Z,5.97
2018-12-05T00:59:07.203Z,5.9
2018-12-05T00:59:47.759Z,5.89
2018-12-05T01:00:28.559Z,5.97
2018-12-05T01:01:09.120Z,5.91
2018-12-05T01:01:49.686Z,5.98
2018-12-05T01:02:30.251Z,5.91
2018-12-05T01:03:10.798Z,5.91
2018-12-05T01:03:51.346Z,5.93
2018-12-05T01:04:31.918Z,5.89
2018-12-05T01:05:12.461Z,5.91
2018-12-05T01:05:53.013Z,5.9
2018-12-05T01:06:33.557Z,5.91
2018-12-05T01:07:14.125Z,5.89
2018-12-05T01:07:54.724Z,5.87
2018-12-05T01:08:35.290Z,5.86
2018-12-05T01:09:15.874Z,5.86
2018-12-05T01:09:56.432Z,5.87
2018-12-05T01:10:36.985Z,5.8
2018-12-05T01:11:17.558Z,5.87
2018-12-05T01:11:58.117Z,5.89
2018-12-05T01:12:38.691Z,5.8
2018-12-05T01:13:19.230Z,5.75
2018-12-05T01:13:59.859Z,5.86
2018-12-05T01:14:40.406Z,5.75
2018-12-05T01:15:20.959Z,5.76
2018-12-05T01:16:01.515Z,5.76
2018-12-05T01:16:42.079Z,5.72
2018-12-05T01:17:22.635Z,5.75
2018-12-05T01:18:03.191Z,5.73
2018-12-05T01:18:43.754Z,5.71
2018-12-05T01:19:24.338Z,5.75
2018-12-05T01:20:04.904Z,5.82
2018-12-05T01:20:45.450Z,5.71
2018-12-05T01:21:26.002Z,5.73
2018-12-05T01:22:06.547Z,5.72
2018-12-05T01:22:47.115Z,5.72
2018-12-05T01:23:27.698Z,5.66
2018-12-05T01:24:08.250Z,5.69
2018-12-05T01:24:48.828Z,5.71
2018-12-05T01:25:29.375Z,5.65
2018-12-05T01:26:09.965Z,5.64
2018-12-05T01:26:50.501Z,5.62
2018-12-05T01:27:31.063Z,5.64
2018-12-05T01:28:11.604Z,5.61
2018-12-05T01:28:52.172Z,5.57
2018-12-05T01:29:32.723Z,5.66
2018-12-05T01:30:13.257Z,5.53
2018-12-05T01:30:53.835Z,5.51
2018-12-05T01:31:34.424Z,5.5
2018-12-05T01:32:15.025Z,5.48
2018-12-05T01:32:55.569Z,5.47
2018-12-05T01:33:36.122Z,5.39
2018-12-05T01:34:16.699Z,5.47
2018-12-05T01:34:57.267Z,5.46
2018-12-05T01:35:37.864Z,5.53
2018-12-05T01:36:18.415Z,5.41
2018-12-05T01:36:58.974Z,5.41
2018-12-05T01:37:39.530Z,5.38
2018-12-05T01:38:20.070Z,5.41
2018-12-05T01:39:00.609Z,5.44
2018-12-05T01:39:41.173Z,5.53
2018-12-05T01:40:21.729Z,5.38
2018-12-05T01:41:02.273Z,5.46
2018-12-05T01:41:42.822Z,5.53
2018-12-05T01:42:23.379Z,5.54
2018-12-05T01:43:03.929Z,5.53
2018-12-05T01:43:44.480Z,5.59
2018-12-05T01:44:25.112Z,5.48
2018-12-05T01:45:05.680Z,5.53
2018-12-05T01:45:46.232Z,5.57
2018-12-05T01:46:26.798Z,5.5
2018-12-05T01:47:07.346Z,5.44
2018-12-05T01:47:47.917Z,5.54
2018-12-05T01:48:28.469Z,5.54
2018-12-05T01:49:09.010Z,5.51
2018-12-05T01:49:49.593Z,5.56
2018-12-05T01:50:30.143Z,5.53
2018-12-05T01:51:10.704Z,5.53
2018-12-05T01:51:51.266Z,5.51
2018-12-05T01:52:31.810Z,5.53
2018-12-05T01:53:12.436Z,5.43
2018-12-05T01:53:53.120Z,5.53
2018-12-05T01:54:33.579Z,5.54
2018-12-05T01:55:14.134Z,5.56
2018-12-05T01:55:54.687Z,5.53
2018-12-05T01:56:35.248Z,5.54
2018-12-05T01:57:15.803Z,5.53
2018-12-05T01:57:56.379Z,5.46
2018-12-05T01:58:36.976Z,5.47
2018-12-05T01:59:17.636Z,5.54
2018-12-05T01:59:58.122Z,5.65
2018-12-05T02:00:38.670Z,5.5
2018-12-05T02:01:19.282Z,5.48
2018-12-05T02:01:59.909Z,5.48
2018-12-05T02:02:40.524Z,5.48
2018-12-05T02:03:21.076Z,5.61
2018-12-05T02:04:01.640Z,5.51
2018-12-05T02:04:42.217Z,5.53
2018-12-05T02:05:22.776Z,5.56
2018-12-05T02:06:03.339Z,5.46
2018-12-05T02:06:43.977Z,5.48
2018-12-05T02:07:24.544Z,5.54
2018-12-05T02:08:05.090Z,5.44
2018-12-05T02:08:45.654Z,5.47
2018-12-05T02:09:26.221Z,5.5
2018-12-05T02:10:06.775Z,5.57
2018-12-05T02:10:47.347Z,5.48
2018-12-05T02:11:27.897Z,5.54
2018-12-05T02:12:08.470Z,5.51
2018-12-05T02:12:49.030Z,5.53
2018-12-05T02:13:29.599Z,5.5
2018-12-05T02:14:10.142Z,5.62
2018-12-05T02:14:50.707Z,5.62
2018-12-05T02:15:31.295Z,5.65
2018-12-05T02:16:11.911Z,5.66
2018-12-05T02:16:52.500Z,5.62
2018-12-05T02:17:33.058Z,5.65
2018-12-05T02:18:13.608Z,5.65
2018-12-05T02:18:54.162Z,5.66
2018-12-05T02:19:34.706Z,5.61
2018-12-05T02:20:15.255Z,5.62
2018-12-05T02:20:55.811Z,5.66
2018-12-05T02:21:36.374Z,5.62
2018-12-05T02:22:16.936Z,5.66
2018-12-05T02:22:57.494Z,5.66
2018-12-05T02:23:38.062Z,5.64
2018-12-05T02:24:18.605Z,5.65
2018-12-05T02:24:59.184Z,5.68
2018-12-05T02:25:39.743Z,5.61
2018-12-05T02:26:20.294Z,5.72
2018-12-05T02:27:00.856Z,5.65
2018-12-05T02:27:41.404Z,5.62
2018-12-05T02:28:22.008Z,5.57
2018-12-05T02:29:02.578Z,5.68
2018-12-05T02:29:43.149Z,5.61
2018-12-05T02:30:23.707Z,5.61
2018-12-05T02:31:04.505Z,5.62
2018-12-05T02:31:45.133Z,5.64
2018-12-05T02:32:25.711Z,5.68
2018-12-05T02:33:06.293Z,5.62
2018-12-05T02:33:46.872Z,5.62
2018-12-05T02:34:27.432Z,5.64
2018-12-05T02:35:08.021Z,5.64
2018-12-05T02:35:48.602Z,5.66
2018-12-05T02:36:29.174Z,5.65
2018-12-05T02:37:09.742Z,5.59
2018-12-05T02:37:50.474Z,5.59
2018-12-05T02:38:31.037Z,5.65
2018-12-05T02:39:11.597Z,5.66
2018-12-05T02:39:52.158Z,5.68
2018-12-05T02:40:32.710Z,5.68
2018-12-05T02:41:13.267Z,5.66
2018-12-05T02:41:53.871Z,5.68
2018-12-05T02:42:34.463Z,5.61
2018-12-05T02:43:15.013Z,5.56
2018-12-05T02:43:55.574Z,5.62
2018-12-05T02:44:36.146Z,5.62
2018-12-05T02:45:16.722Z,5.64
2018-12-05T02:45:57.279Z,5.64
2018-12-05T02:46:37.847Z,5.62
2018-12-05T02:47:18.415Z,5.62
2018-12-05T02:47:58.988Z,5.62
2018-12-05T02:48:39.563Z,5.66
2018-12-05T02:49:20.120Z,5.69
2018-12-05T02:50:00.678Z,5.69
2018-12-05T02:50:41.232Z,5.62
2018-12-05T02:51:21.801Z,5.68
2018-12-05T02:52:02.373Z,5.69
2018-12-05T02:52:42.924Z,5.66
2018-12-05T02:53:23.495Z,5.66
2018-12-05T02:54:04.044Z,5.59
2018-12-05T02:54:44.690Z,5.66
2018-12-05T02:55:25.253Z,5.64
2018-12-05T02:56:05.801Z,5.71
2018-12-05T02:56:46.365Z,5.65
2018-12-05T02:57:26.935Z,5.57
2018-12-05T02:58:07.497Z,5.68
2018-12-05T02:58:48.052Z,5.61
2018-12-05T02:59:28.599Z,5.65
2018-12-05T03:00:09.599Z,5.61
2018-12-05T03:00:50.162Z,5.62
2018-12-05T03:01:30.781Z,5.69
2018-12-05T03:02:11.369Z,5.69
2018-12-05T03:02:51.946Z,5.71
2018-12-05T03:03:32.560Z,5.62
2018-12-05T03:04:13.116Z,5.61
2018-12-05T03:04:53.678Z,5.65
2018-12-05T03:05:34.246Z,5.65
2018-12-05T03:06:14.805Z,5.51
2018-12-05T03:06:55.370Z,5.57
2018-12-05T03:07:35.944Z,5.48
2018-12-05T03:08:16.495Z,5.51
2018-12-05T03:08:57.048Z,5.51
2018-12-05T03:09:37.606Z,5.53
2018-12-05T03:10:18.170Z,5.51
2018-12-05T03:10:58.725Z,5.54
2018-12-05T03:11:39.306Z,5.53
2018-12-05T03:12:19.862Z,5.46
2018-12-05T03:13:00.432Z,5.44
2018-12-05T03:13:40.986Z,5.44
2018-12-05T03:14:21.558Z,5.36
2018-12-05T03:15:02.149Z,5.38
2018-12-05T03:15:42.705Z,5.39
2018-12-05T03:16:23.294Z,5.43
2018-12-05T03:17:03.869Z,5.43
2018-12-05T03:17:44.427Z,5.41
2018-12-05T03:18:24.975Z,5.41
2018-12-05T03:19:05.550Z,5.43
2018-12-05T03:19:46.104Z,5.38
2018-12-05T03:20:26.664Z,5.41
2018-12-05T03:21:07.222Z,5.39
2018-12-05T03:21:47.808Z,5.36
2018-12-05T03:22:28.369Z,5.35
2018-12-05T03:23:08.927Z,5.38
2018-12-05T03:23:49.488Z,5.38
2018-12-05T03:24:30.045Z,5.3
2018-12-05T03:25:10.617Z,5.33
2018-12-05T03:25:51.177Z,5.3
2018-12-05T03:26:31.734Z,5.3
2018-12-05T03:27:12.285Z,5.33
2018-12-05T03:27:52.838Z,5.35
2018-12-05T03:28:33.401Z,5.26
2018-12-05T03:29:13.966Z,5.3
2018-12-05T03:29:54.549Z,5.26
2018-12-05T03:30:35.098Z,5.23
2018-12-05T03:31:15.666Z,5.2
2018-12-05T03:31:56.225Z,5.26
2018-12-05T03:32:36.821Z,5.15
2018-12-05T03:33:17.359Z,5.2
2018-12-05T03:33:57.917Z,5.2
2018-12-05T03:34:38.471Z,5.17
2018-12-05T03:35:19.022Z,5.25
2018-12-05T03:35:59.586Z,5.17
2018-12-05T03:36:40.155Z,5.23
2018-12-05T03:37:20.740Z,5.15
2018-12-05T03:38:01.297Z,5.26
2018-12-05T03:38:41.855Z,5.26
2018-12-05T03:39:22.414Z,5.21
2018-12-05T03:40:02.985Z,5.18
2018-12-05T03:40:43.551Z,5.15
2018-12-05T03:41:24.144Z,5.1
2018-12-05T03:42:04.778Z,5.08
2018-12-05T03:42:45.247Z,5.11
2018-12-05T03:43:25.795Z,5.07
2018-12-05T03:44:06.354Z,5.07
2018-12-05T03:44:46.917Z,5.15
2018-12-05T03:45:27.447Z,5.07
2018-12-05T03:46:08.016Z,5.12
2018-12-05T03:46:48.590Z,5.04
2018-12-05T03:47:29.139Z,5
2018-12-05T03:48:09.709Z,5.04
2018-12-05T03:48:50.255Z,5.08
2018-12-05T03:49:30.820Z,5.05
2018-12-05T03:50:11.368Z,5.12
2018-12-05T03:50:51.945Z,5
2018-12-05T03:51:32.495Z,5.05
2018-12-05T03:52:13.124Z,5.11
2018-12-05T03:52:53.701Z,5.02
2018-12-05T03:53:34.275Z,5.05
2018-12-05T03:54:14.839Z,5.04
2018-12-05T03:56:53.240Z,5.08
2018-12-05T03:57:33.788Z,4.97
2018-12-05T03:58:14.347Z,4.97
2018-12-05T03:58:54.900Z,5.02
2018-12-05T03:59:35.453Z,5.04
2018-12-05T04:00:16.000Z,5.02
2018-12-05T04:00:56.559Z,4.99
2018-12-05T04:01:37.107Z,5.04
2018-12-05T04:02:17.681Z,4.99
2018-12-05T04:02:58.228Z,5
2018-12-05T04:03:38.786Z,5.07
2018-12-05T04:04:19.351Z,5.07
2018-12-05T04:04:59.921Z,5.04
2018-12-05T04:05:40.479Z,5
2018-12-05T04:06:21.040Z,5
2018-12-05T04:07:01.597Z,5.05
2018-12-05T04:07:42.157Z,5.08
2018-12-05T04:08:22.704Z,5.05
2018-12-05T04:09:03.259Z,4.9
2018-12-05T04:09:45.107Z,4.9
2018-12-05T04:10:24.396Z,5
2018-12-05T04:11:04.961Z,4.97
2018-12-05T04:11:45.513Z,4.94
2018-12-05T04:12:26.103Z,4.96
2018-12-05T04:13:06.662Z,4.99
2018-12-05T04:13:47.213Z,4.99
2018-12-05T04:14:27.784Z,4.96
2018-12-05T04:15:08.339Z,4.87
2018-12-05T04:15:48.906Z,4.96
2018-12-05T04:16:29.468Z,5.02
2018-12-05T04:17:10.071Z,5.02
2018-12-05T04:17:50.600Z,4.92
2018-12-05T04:18:31.163Z,4.93
2018-12-05T04:19:11.715Z,4.89
2018-12-05T04:19:52.274Z,4.92
2018-12-05T04:20:32.831Z,4.9
2018-12-05T04:21:13.386Z,4.99
2018-12-05T04:21:53.934Z,4.92
2018-12-05T04:22:34.584Z,4.96
2018-12-05T04:23:15.053Z,4.89
2018-12-05T04:23:55.629Z,4.89
2018-12-05T04:24:36.190Z,4.9
2018-12-05T04:25:16.748Z,4.96
2018-12-05T04:25:57.323Z,4.96
2018-12-05T04:26:37.880Z,4.93
2018-12-05T04:27:18.456Z,4.93
2018-12-05T04:27:59.046Z,4.84
2018-12-05T04:28:39.602Z,4.92
2018-12-05T04:29:20.183Z,4.96
2018-12-05T04:30:00.721Z,4.94
2018-12-05T04:30:41.283Z,4.96
2018-12-05T04:31:21.832Z,4.92
2018-12-05T04:32:02.442Z,4.87
2018-12-05T04:32:43.006Z,4.87
2018-12-05T04:33:23.559Z,4.9
2018-12-05T04:34:04.147Z,4.9
2018-12-05T04:34:44.695Z,4.84
2018-12-05T04:35:25.246Z,4.92
2018-12-05T04:36:05.812Z,4.89
2018-12-05T04:36:46.360Z,4.86
2018-12-05T04:37:26.946Z,4.86
2018-12-05T04:38:07.517Z,4.89
2018-12-05T04:38:48.086Z,4.94
2018-12-05T04:39:28.646Z,4.92
2018-12-05T04:40:09.193Z,4.77
2018-12-05T04:40:49.746Z,4.75
2018-12-05T04:41:30.293Z,4.75
2018-12-05T04:42:10.853Z,4.78
2018-12-05T04:42:51.416Z,4.78
2018-12-05T04:43:31.991Z,4.78
2018-12-05T04:44:12.522Z,4.77
2018-12-05T04:44:53.089Z,4.78
2018-12-05T04:45:33.637Z,4.82
2018-12-05T04:46:14.231Z,4.75
2018-12-05T04:46:54.802Z,4.82
2018-12-05T04:47:35.351Z,4.77
2018-12-05T04:48:15.923Z,4.82
2018-12-05T04:48:56.460Z,4.78
2018-12-05T04:49:37.029Z,4.75
2018-12-05T04:50:17.590Z,4.75
2018-12-05T04:50:58.145Z,4.74
2018-12-05T04:51:38.693Z,4.73
2018-12-05T04:52:19.296Z,4.74
2018-12-05T04:52:59.860Z,4.71
2018-12-05T04:53:40.434Z,4.71
2018-12-05T04:54:20.991Z,4.77
2018-12-05T04:55:01.555Z,4.75
2018-12-05T04:55:42.096Z,4.74
2018-12-05T04:56:22.698Z,4.7
2018-12-05T04:57:03.247Z,4.7
2018-12-05T04:57:43.809Z,4.68
2018-12-05T04:58:24.374Z,4.7
2018-12-05T04:59:04.931Z,4.71
2018-12-05T04:59:45.477Z,4.68
2018-12-05T05:00:26.199Z,4.68
2018-12-05T05:01:06.763Z,4.67
2018-12-05T05:01:47.343Z,4.71
2018-12-05T05:02:27.910Z,4.71
2018-12-05T05:03:08.452Z,4.68
2018-12-05T05:03:49.000Z,4.67
2018-12-05T05:04:29.555Z,4.67
2018-12-05T05:05:10.121Z,4.78
2018-12-05T05:05:50.660Z,4.68
2018-12-05T05:06:31.223Z,4.71
2018-12-05T05:07:11.781Z,4.7
2018-12-05T05:07:52.355Z,4.73
2018-12-05T05:08:32.914Z,4.68
2018-12-05T05:09:13.500Z,4.68
2018-12-05T05:09:54.068Z,4.68
2018-12-05T05:10:34.635Z,4.68
2018-12-05T05:11:15.198Z,4.75
2018-12-05T05:11:55.743Z,4.68
2018-12-05T05:12:36.292Z,4.71
2018-12-05T05:13:16.853Z,4.73
2018-12-05T05:13:57.401Z,4.7
2018-12-05T05:14:37.961Z,4.68
2018-12-05T05:15:18.510Z,4.67
2018-12-05T05:15:59.059Z,4.62
2018-12-05T05:16:39.625Z,4.63
2018-12-05T05:17:20.176Z,4.63
2018-12-05T05:18:00.728Z,4.62
2018-12-05T05:18:41.290Z,4.66
2018-12-05T05:19:21.837Z,4.67
2018-12-05T05:20:02.396Z,4.62
2018-12-05T05:20:42.966Z,4.6
2018-12-05T05:21:23.536Z,4.67
2018-12-05T05:22:04.074Z,4.73
2018-12-05T05:22:44.646Z,4.71
2018-12-05T05:23:25.210Z,4.67
2018-12-05T05:24:05.774Z,4.58
2018-12-05T05:24:46.326Z,4.6
2018-12-05T05:25:26.921Z,4.62
2018-12-05T05:26:07.483Z,4.67
2018-12-05T05:26:48.035Z,4.66
2018-12-05T05:27:28.598Z,4.62
2018-12-05T05:28:09.203Z,4.63
2018-12-05T05:28:49.767Z,4.66
2018-12-05T05:29:30.327Z,4.62
2018-12-05T05:30:10.960Z,4.6
2018-12-05T05:30:51.520Z,4.77
2018-12-05T05:31:32.149Z,4.63
2018-12-05T05:32:12.694Z,4.62
2018-12-05T05:32:53.244Z,4.66
2018-12-05T05:33:33.793Z,4.6
2018-12-05T05:34:14.345Z,4.62
2018-12-05T05:34:54.910Z,4.66
2018-12-05T05:35:35.499Z,4.63
2018-12-05T05:36:16.055Z,4.62
2018-12-05T05:36:56.630Z,4.7
2018-12-05T05:37:37.193Z,4.66
2018-12-05T05:38:17.752Z,4.73
2018-12-05T05:38:58.315Z,4.67
2018-12-05T05:39:38.875Z,4.62
2018-12-05T05:40:19.426Z,4.7
2018-12-05T05:40:59.974Z,4.7
2018-12-05T05:41:40.550Z,4.6
2018-12-05T05:42:21.121Z,4.62
2018-12-05T05:43:01.707Z,4.6
2018-12-05T05:43:42.334Z,4.6
2018-12-05T05:44:22.929Z,4.66
2018-12-05T05:45:03.497Z,4.59
2018-12-05T05:45:44.076Z,4.63
2018-12-05T05:46:24.640Z,4.59
2018-12-05T05:47:05.213Z,4.6
2018-12-05T05:47:45.768Z,4.7
2018-12-05T05:48:26.318Z,4.66
2018-12-05T05:49:06.864Z,4.7
2018-12-05T05:49:47.425Z,4.73
2018-12-05T05:50:27.996Z,4.67
2018-12-05T05:51:08.548Z,4.68
2018-12-05T05:51:49.109Z,4.71
2018-12-05T05:52:29.683Z,4.74
2018-12-05T05:53:10.231Z,4.73
2018-12-05T05:53:50.774Z,4.73
2018-12-05T05:54:31.336Z,4.73
2018-12-05T05:55:11.896Z,4.71
2018-12-05T05:55:52.449Z,4.68
2018-12-05T05:56:33.016Z,4.74
2018-12-05T05:57:13.569Z,4.73
2018-12-05T05:57:54.125Z,4.77
2018-12-05T05:58:34.680Z,4.73
2018-12-05T05:59:15.228Z,4.74
2018-12-05T05:59:55.800Z,4.78
2018-12-05T06:00:36.375Z,4.75
2018-12-05T06:01:16.947Z,4.78
2018-12-05T06:01:57.506Z,4.78
2018-12-05T06:02:38.097Z,4.8
2018-12-05T06:03:18.611Z,4.8
2018-12-05T06:03:59.192Z,4.78
2018-12-05T06:04:39.744Z,4.84
2018-12-05T06:05:20.282Z,4.75
2018-12-05T06:06:00.842Z,4.68
2018-12-05T06:06:41.411Z,4.78
2018-12-05T06:07:21.978Z,4.78
2018-12-05T06:08:02.556Z,4.71
2018-12-05T06:08:43.094Z,4.77
2018-12-05T06:09:23.693Z,4.75
2018-12-05T06:10:04.255Z,4.75
2018-12-05T06:10:44.816Z,4.78
2018-12-05T06:11:25.373Z,4.78
2018-12-05T06:12:05.918Z,4.8
2018-12-05T06:12:46.492Z,4.75
2018-12-05T06:13:27.096Z,4.75
2018-12-05T06:14:07.688Z,4.84
2018-12-05T06:14:48.270Z,4.75
2018-12-05T06:15:28.825Z,4.74
2018-12-05T06:16:09.424Z,4.78
2018-12-05T06:16:49.980Z,4.75
2018-12-05T06:17:30.525Z,4.74
2018-12-05T06:18:11.078Z,4.75
2018-12-05T06:18:51.661Z,4.75
2018-12-05T06:19:32.212Z,4.78
2018-12-05T06:20:12.783Z,4.82
2018-12-05T06:20:53.336Z,4.86
2018-12-05T06:21:33.932Z,4.78
2018-12-05T06:22:14.571Z,4.77
2018-12-05T06:22:55.129Z,4.77
2018-12-05T06:23:35.723Z,4.77
2018-12-05T06:24:16.282Z,4.74
2018-12-05T06:24:56.848Z,4.75
2018-12-05T06:25:37.385Z,4.78
2018-12-05T06:26:17.956Z,4.73
2018-12-05T06:26:58.530Z,4.75
2018-12-05T06:27:39.098Z,4.75
2018-12-05T06:28:19.656Z,4.73
2018-12-05T06:29:00.273Z,4.67
2018-12-05T06:29:40.852Z,4.66
2018-12-05T06:30:21.405Z,4.7
2018-12-05T06:31:01.957Z,4.67
2018-12-05T06:31:42.510Z,4.67
2018-12-05T06:32:23.066Z,4.68
2018-12-05T06:33:03.645Z,4.63
2018-12-05T06:33:44.252Z,4.7
2018-12-05T06:34:24.803Z,4.66
2018-12-05T06:35:05.361Z,4.71
2018-12-05T06:35:45.942Z,4.73
2018-12-05T06:36:26.510Z,4.67
2018-12-05T06:37:07.093Z,4.66
2018-12-05T06:37:47.655Z,4.71
2018-12-05T06:38:28.217Z,4.74
2018-12-05T06:39:08.772Z,4.96
2018-12-05T06:39:49.318Z,5.26
2018-12-05T06:40:29.896Z,5.5
2018-12-05T06:41:10.468Z,5.72
2018-12-05T06:41:51.043Z,5.99
2018-12-05T06:42:31.587Z,6.24
2018-12-05T06:43:12.196Z,6.42
2018-12-05T06:43:52.749Z,6.57
2018-12-05T06:44:33.335Z,6.82
2018-12-05T06:45:14.051Z,6.97
2018-12-05T06:45:54.630Z,7.18
2018-12-05T06:46:35.196Z,7.38
2018-12-05T06:47:15.759Z,7.36
2018-12-05T06:47:56.363Z,7.45
2018-12-05T06:48:36.907Z,7.48
2018-12-05T06:49:17.488Z,7.58
2018-12-05T06:49:58.056Z,7.57
2018-12-05T06:50:38.687Z,7.61
2018-12-05T06:51:19.251Z,7.6
2018-12-05T06:51:59.812Z,7.75
2018-12-05T06:52:40.366Z,7.87
2018-12-05T06:53:20.929Z,7.77
2018-12-05T06:54:01.536Z,7.82
2018-12-05T06:54:42.083Z,7.66
2018-12-05T06:55:22.662Z,7.56
2018-12-05T06:56:03.173Z,7.33
2018-12-05T06:56:43.735Z,7.17
2018-12-05T06:57:24.287Z,7
2018-12-05T06:58:04.832Z,6.88
2018-12-05T06:58:45.396Z,6.75
2018-12-05T06:59:25.964Z,6.66
2018-12-05T07:00:08.098Z,6.44
2018-12-05T07:00:47.078Z,6.45
2018-12-05T07:01:27.634Z,6.28
2018-12-05T07:02:08.192Z,6.16
2018-12-05T07:02:48.763Z,5.97
2018-12-05T07:03:29.338Z,5.99
2018-12-05T07:04:09.894Z,5.97
2018-12-05T07:04:50.467Z,5.84
2018-12-05T07:05:31.050Z,5.69
2018-12-05T07:06:11.613Z,5.71
2018-12-05T07:06:52.176Z,5.62
2018-12-05T07:07:32.737Z,5.51
2018-12-05T07:08:13.287Z,5.56
2018-12-05T07:08:53.856Z,5.41
2018-12-05T07:09:34.419Z,5.48
2018-12-05T07:10:15.109Z,5.47
2018-12-05T07:10:55.680Z,5.32
2018-12-05T07:11:36.278Z,5.36
2018-12-05T07:12:16.844Z,5.26
2018-12-05T07:12:57.421Z,5.38
2018-12-05T07:13:37.981Z,5.32
2018-12-05T07:14:18.521Z,5.25
2018-12-05T07:14:59.075Z,5.26
2018-12-05T07:15:39.702Z,5.18
2018-12-05T07:16:20.286Z,5.28
2018-12-05T07:17:00.868Z,5.2
2018-12-05T07:17:41.437Z,5.15
2018-12-05T07:18:22.126Z,5.17
2018-12-05T07:19:02.686Z,5.05
2018-12-05T07:19:43.256Z,5.11
2018-12-05T07:20:23.825Z,5.07
2018-12-05T07:21:04.386Z,5.02
2018-12-05T07:21:44.939Z,4.96
2018-12-05T07:22:25.501Z,5.07
2018-12-05T07:23:06.069Z,4.99
2018-12-05T07:23:46.606Z,4.96
2018-12-05T07:24:27.159Z,4.97
2018-12-05T07:25:08.271Z,4.92
2018-12-05T07:25:48.835Z,4.96
2018-12-05T07:26:29.407Z,4.92
2018-12-05T07:27:09.976Z,4.92
2018-12-05T07:27:50.525Z,4.9
2018-12-05T07:28:31.080Z,4.92
2018-12-05T07:29:11.644Z,4.82
2018-12-05T07:29:52.271Z,4.92
2018-12-05T07:30:32.819Z,4.87
2018-12-05T07:31:13.382Z,4.93
2018-12-05T07:31:53.953Z,4.87
2018-12-05T07:32:34.523Z,4.75
2018-12-05T07:33:15.072Z,4.74
2018-12-05T07:33:55.625Z,4.75
2018-12-05T07:34:36.188Z,4.78
2018-12-05T07:35:16.744Z,4.74
2018-12-05T07:35:57.307Z,4.73
2018-12-05T07:36:37.867Z,4.75
2018-12-05T07:37:18.485Z,4.73
2018-12-05T07:37:58.992Z,4.73
2018-12-05T07:38:39.551Z,4.75
2018-12-05T07:39:20.096Z,4.68
2018-12-05T07:40:00.670Z,4.7
2018-12-05T07:40:41.265Z,4.6
2018-12-05T07:41:21.854Z,4.63
2018-12-05T07:42:02.417Z,4.59
2018-12-05T07:42:43.522Z,4.67
2018-12-05T07:43:23.538Z,4.66
2018-12-05T07:44:04.117Z,4.63
2018-12-05T07:44:44.652Z,4.67
2018-12-05T07:45:25.195Z,4.6
2018-12-05T07:46:05.808Z,4.63
2018-12-05T07:46:46.374Z,4.63
2018-12-05T07:47:26.929Z,4.7
2018-12-05T07:48:07.546Z,4.67
2018-12-05T07:48:48.110Z,4.71
2018-12-05T07:49:28.667Z,4.63
2018-12-05T07:50:09.233Z,4.71
2018-12-05T07:50:49.787Z,4.67
2018-12-05T07:51:30.355Z,4.7
2018-12-05T07:52:10.911Z,4.68
2018-12-05T07:52:51.487Z,4.73
2018-12-05T07:53:32.040Z,4.71
2018-12-05T07:54:12.611Z,4.74
2018-12-05T07:54:53.187Z,4.74
2018-12-05T07:55:33.752Z,4.74
2018-12-05T07:56:14.318Z,4.71
2018-12-05T07:56:54.908Z,4.74
2018-12-05T07:57:35.478Z,4.7
2018-12-05T07:58:16.048Z,4.71
2018-12-05T07:58:56.618Z,4.71
2018-12-05T07:59:37.189Z,4.68
2018-12-05T08:00:18.017Z,4.71
2018-12-05T08:00:58.598Z,4.73
2018-12-05T08:01:39.320Z,4.7
2018-12-05T08:02:20.024Z,4.75
2018-12-05T08:03:01.750Z,4.73
2018-12-05T08:03:41.161Z,4.7
2018-12-05T08:04:21.720Z,4.73
2018-12-05T08:05:02.317Z,4.74
2018-12-05T08:05:42.882Z,4.78
2018-12-05T08:06:23.453Z,4.73
2018-12-05T08:07:04.010Z,4.78
2018-12-05T08:07:44.570Z,4.82
2018-12-05T08:08:25.131Z,4.74
2018-12-05T08:09:05.675Z,4.77
2018-12-05T08:09:46.258Z,4.78
2018-12-05T08:10:26.830Z,4.77
2018-12-05T08:11:07.397Z,4.75
2018-12-05T08:11:48.000Z,4.77
2018-12-05T08:12:28.564Z,4.74
2018-12-05T08:13:09.118Z,4.82
2018-12-05T08:13:49.670Z,4.8
2018-12-05T08:14:30.231Z,4.75
2018-12-05T08:15:10.794Z,4.75
2018-12-05T08:15:51.364Z,4.77
2018-12-05T08:16:31.919Z,4.87
2018-12-05T08:17:12.480Z,4.87
2018-12-05T08:17:53.036Z,4.94
2018-12-05T08:18:33.587Z,4.75
2018-12-05T08:19:14.140Z,4.9
2018-12-05T08:19:54.707Z,4.92
2018-12-05T08:20:35.276Z,4.75
2018-12-05T08:21:15.841Z,4.89
2018-12-05T08:21:56.399Z,4.82
2018-12-05T08:22:36.957Z,4.74
2018-12-05T08:23:17.520Z,4.78
2018-12-05T08:23:58.084Z,4.75
2018-12-05T08:24:38.664Z,4.74
2018-12-05T08:25:19.210Z,4.8
2018-12-05T08:25:59.780Z,4.75
2018-12-05T08:26:40.317Z,4.9
2018-12-05T08:27:20.889Z,5.02
2018-12-05T08:28:01.453Z,5.29
2018-12-05T08:28:42.016Z,5.47
2018-12-05T08:29:22.583Z,5.68
2018-12-05T08:30:03.138Z,5.94
2018-12-05T08:30:43.703Z,6.11
2018-12-05T08:31:24.273Z,6.26
2018-12-05T08:32:05.498Z,6.41
2018-12-05T08:32:45.397Z,6.42
2018-12-05T08:33:25.966Z,6.46
2018-12-05T08:34:06.528Z,6.36
2018-12-05T08:34:47.086Z,6.41
2018-12-05T08:35:27.632Z,6.26
2018-12-05T08:36:08.193Z,6.26
2018-12-05T08:36:48.799Z,6.17
2018-12-05T08:37:29.367Z,6.16
2018-12-05T08:38:09.974Z,6.12
2018-12-05T08:38:50.509Z,6.24
2018-12-05T08:39:31.075Z,6.2
2018-12-05T08:40:11.614Z,6.35
2018-12-05T08:40:52.258Z,6.3
2018-12-05T08:41:32.820Z,6.33
2018-12-05T08:42:13.375Z,6.41
2018-12-05T08:42:53.916Z,6.56
2018-12-05T08:43:34.476Z,6.57
2018-12-05T08:44:15.047Z,6.77
2018-12-05T08:44:55.620Z,6.81
2018-12-05T08:45:36.168Z,6.82
2018-12-05T08:46:16.749Z,7.03
2018-12-05T08:46:57.316Z,7.18
2018-12-05T08:47:37.873Z,7.28
2018-12-05T08:48:18.481Z,7.42
2018-12-05T08:48:59.018Z,7.6
2018-12-05T08:49:39.579Z,7.72
2018-12-05T08:50:20.155Z,7.87
2018-12-05T08:51:00.720Z,8.01
2018-12-05T08:51:41.294Z,8.19
2018-12-05T08:52:21.857Z,8.33
2018-12-05T08:53:02.405Z,8.36
2018-12-05T08:53:43.203Z,8.55
2018-12-05T08:54:23.750Z,8.58
2018-12-05T08:55:04.402Z,8.66
2018-12-05T08:55:44.957Z,8.76
2018-12-05T08:56:25.522Z,8.89
2018-12-05T08:57:06.077Z,8.94
2018-12-05T08:57:46.637Z,9.13
2018-12-05T08:58:27.513Z,9.29
2018-12-05T08:59:08.101Z,9.39
2018-12-05T08:59:48.662Z,9.62
2018-12-05T09:00:29.302Z,9.73
2018-12-05T09:01:09.870Z,9.89
2018-12-05T09:01:50.777Z,10.02
2018-12-05T09:02:31.354Z,10.12
2018-12-05T09:03:12.170Z,10.2
2018-12-05T09:03:52.892Z,10.41
2018-12-05T09:04:33.753Z,10.46
2018-12-05T09:05:15.743Z,10.61
2018-12-05T09:05:56.375Z,10.54
2018-12-05T09:06:37.082Z,10.63